5M9

Marion-Crittenden County Airport

Marion, Kentucky, USA
METAR K5M9 210335Z AUTO 07005KT 10SM CLR 10/M03 A3033 RMK AO2 T01021030
Observed Flight Rules
Apr-21 @ 03:35 UTC (28 minutes ago) Visual Flight Rules
Wind Visibility Clouds
70° at 5 knots 10 miles
  • Clear skies
Temperatures Readings
Current 10°C / 50°F
Dewpoint -3°C / 27°F
Humidity 40%
Altimeter 30.33" Hg
Pressure 1027 hPa
Elevation 199
METAR K5M9 210335Z AUTO 07005KT 10SM CLR 10/M03 A3033 RMK AO2 T01021030
Observed Flight Rules
Apr-21 @ 03:35 UTC
(28 minutes ago)
VFR
Wind Visibility
70° at 5 knots 10 miles
Clouds
  • Clear skies
Temperature Dewpoint
10°C / 50°F -3°C / 27°F
Humidity Altimeter Pressure
40% 30.33" Hg 1027 hPa